Time;durP1;ratioP1;P1;durP2;ratioP2;P2;SDS_P1;SDS_P2;PMS_P1;PMS_P2;Temp;Humidity;BMP_temperature;BMP_pressure;BME280_temperature;BME280_humidity;BME280_pressure;Samples;Min_cycle;Max_cycle;Signal;HPM_P1;HPM_P2
2022/04/28 00:00:58;;;;;;;20.35;14.35;;;8.20;99.90;;;;;;2507652;23;20007;-69
2022/04/28 00:01:58;;;;;;;19.73;14.65;;;8.20;99.90;;;;;;2507639;23;20010;-71
2022/04/28 00:03:00;;;;;;;22.50;15.43;;;8.10;99.90;;;;;;2507508;23;20007;-69
2022/04/28 00:04:00;;;;;;;21.88;15.57;;;8.10;99.90;;;;;;2507521;23;20506;-69
2022/04/28 00:05:02;;;;;;;24.50;16.38;;;8.10;99.90;;;;;;2507551;23;20038;-69
2022/04/28 00:06:03;;;;;;;24.02;16.95;;;8.10;99.90;;;;;;2507496;23;20555;-70
2022/04/28 00:07:04;;;;;;;24.70;17.00;;;8.00;99.90;;;;;;2507306;23;20003;-69
2022/04/28 00:08:05;;;;;;;25.05;17.60;;;8.00;99.90;;;;;;2507378;23;20085;-71
2022/04/28 00:09:06;;;;;;;26.15;17.73;;;8.00;99.90;;;;;;2494852;23;20055;-70
2022/04/28 00:10:08;;;;;;;24.75;16.83;;;8.00;99.90;;;;;;2494801;23;20007;-69
2022/04/28 00:11:11;;;;;;;23.33;16.95;;;8.00;99.90;;;;;;2507497;23;20079;-70
2022/04/28 00:12:12;;;;;;;24.58;17.30;;;7.90;99.90;;;;;;2507535;23;20089;-68
2022/04/28 00:13:13;;;;;;;22.80;15.98;;;7.90;99.90;;;;;;2507677;23;20007;-70
2022/04/28 00:14:14;;;;;;;21.35;15.88;;;7.90;99.90;;;;;;2507302;23;20061;-71
2022/04/28 00:15:14;;;;;;;22.38;16.23;;;7.90;99.90;;;;;;2507563;23;20529;-71
2022/04/28 00:16:15;;;;;;;21.40;15.55;;;7.90;99.90;;;;;;2507297;23;20015;-70
2022/04/28 00:17:16;;;;;;;19.67;15.13;;;7.90;99.90;;;;;;2507285;23;20006;-69
2022/04/28 00:18:16;;;;;;;21.98;15.18;;;7.80;99.90;;;;;;2507552;23;20527;-69
2022/04/28 00:19:17;;;;;;;18.50;14.60;;;7.80;99.90;;;;;;2507496;23;20058;-69
2022/04/28 00:20:18;;;;;;;16.90;13.48;;;7.80;99.90;;;;;;2507363;23;20007;-71
2022/04/28 00:21:18;;;;;;;17.58;13.65;;;7.80;99.90;;;;;;2507561;23;20040;-69
2022/04/28 00:22:19;;;;;;;16.13;13.02;;;7.70;99.90;;;;;;2507521;23;20397;-69
2022/04/28 00:23:20;;;;;;;16.65;13.48;;;7.80;99.90;;;;;;2507361;23;20068;-70
2022/04/28 00:24:20;;;;;;;15.75;12.98;;;7.70;99.90;;;;;;2507478;23;20077;-71
2022/04/28 00:25:22;;;;;;;16.45;13.23;;;7.70;99.90;;;;;;2507537;23;20041;-68
2022/04/28 00:26:23;;;;;;;17.95;13.38;;;7.70;99.90;;;;;;2507527;23;20388;-68
2022/04/28 00:27:24;;;;;;;18.25;13.38;;;7.70;99.90;;;;;;2507283;23;20018;-71
2022/04/28 00:28:24;;;;;;;17.75;13.85;;;7.70;99.90;;;;;;2507439;23;20019;-70
2022/04/28 00:29:25;;;;;;;17.65;13.73;;;7.70;99.90;;;;;;2507443;23;20053;-71
2022/04/28 00:30:26;;;;;;;16.50;13.20;;;7.60;99.90;;;;;;2494683;23;20003;-70
2022/04/28 00:31:27;;;;;;;17.25;13.00;;;7.60;99.90;;;;;;2494827;23;20136;-71
2022/04/28 00:32:27;;;;;;;16.48;13.13;;;7.60;99.90;;;;;;2494810;23;20529;-70
2022/04/28 00:33:29;;;;;;;17.05;12.85;;;7.60;99.90;;;;;;2495005;23;20043;-71
2022/04/28 00:34:30;;;;;;;14.60;12.43;;;7.60;99.90;;;;;;2506846;23;20129;-70
2022/04/28 00:35:31;;;;;;;16.60;12.98;;;7.60;99.90;;;;;;2494909;23;20041;-70
2022/04/28 00:36:31;;;;;;;16.60;13.18;;;7.50;99.90;;;;;;2494878;23;20318;-70
2022/04/28 00:37:32;;;;;;;16.33;12.57;;;7.50;99.90;;;;;;2506379;23;20003;-71
2022/04/28 00:38:33;;;;;;;17.33;13.25;;;7.50;99.90;;;;;;2507193;23;20109;-70
2022/04/28 00:39:34;;;;;;;17.75;13.35;;;7.50;99.90;;;;;;2506725;23;20017;-69
2022/04/28 00:40:34;;;;;;;17.88;13.43;;;7.50;99.90;;;;;;2506523;23;20026;-70
2022/04/28 00:41:35;;;;;;;17.42;13.60;;;7.50;99.90;;;;;;2507598;23;20139;-70
2022/04/28 00:42:35;;;;;;;16.67;13.18;;;7.50;99.90;;;;;;2494861;23;20023;-70
2022/04/28 00:43:49;;;;;;;18.00;13.93;;;7.40;99.90;;;;;;2494895;23;20003;-70
2022/04/28 00:44:50;;;;;;;16.30;13.60;;;7.40;99.90;;;;;;2494665;23;20007;-70
2022/04/28 00:45:51;;;;;;;16.70;12.95;;;7.40;99.90;;;;;;2494692;23;20007;-70
2022/04/28 00:46:51;;;;;;;15.13;12.63;;;7.40;99.90;;;;;;2507675;23;20342;-71
2022/04/28 00:50:39;;;;;;;17.92;13.05;;;7.40;99.90;;;;;;2506351;23;20562;-69
2022/04/28 00:51:41;;;;;;;16.45;13.32;;;7.40;99.90;;;;;;2506907;23;20510;-70
2022/04/28 00:52:41;;;;;;;17.10;13.45;;;7.40;99.90;;;;;;2507454;23;20013;-70
2022/04/28 00:53:49;;;;;;;17.05;13.43;;;7.40;99.90;;;;;;2507509;23;20018;-70
2022/04/28 00:54:52;;;;;;;16.80;13.15;;;7.30;99.90;;;;;;2507431;23;20011;-70
2022/04/28 00:55:53;;;;;;;17.73;13.20;;;7.30;99.90;;;;;;2483072;23;20019;-70
2022/04/28 00:56:56;;;;;;;15.95;13.52;;;7.30;99.90;;;;;;2482863;23;20039;-71
2022/04/28 00:57:58;;;;;;;16.75;12.95;;;7.30;99.90;;;;;;2471601;23;20088;-70
2022/04/28 00:59:02;;;;;;;17.23;13.27;;;7.30;99.90;;;;;;2483423;23;20015;-70
2022/04/28 01:00:03;;;;;;;18.35;13.73;;;7.30;99.90;;;;;;2506328;23;20014;-70
2022/04/28 01:01:05;;;;;;;16.65;13.32;;;7.30;99.90;;;;;;2506568;23;20025;-70
2022/04/28 01:02:06;;;;;;;16.40;13.35;;;7.30;99.90;;;;;;2494761;23;20076;-71
2022/04/28 01:03:07;;;;;;;19.10;13.95;;;7.20;99.90;;;;;;2483008;23;20000;-68
2022/04/28 01:04:07;;;;;;;19.55;14.00;;;7.20;99.90;;;;;;2483004;23;20099;-69
2022/04/28 01:05:09;;;;;;;20.15;13.90;;;7.20;99.90;;;;;;2471392;24;20066;-70
2022/04/28 01:06:10;;;;;;;19.45;14.38;;;7.20;99.90;;;;;;2483333;23;20519;-71
2022/04/28 01:07:12;;;;;;;19.90;14.23;;;7.20;99.90;;;;;;2482712;23;20008;-69
2022/04/28 01:08:13;;;;;;;19.83;13.70;;;7.20;99.90;;;;;;2483136;23;20087;-68
2022/04/28 01:09:14;;;;;;;20.60;14.45;;;7.20;99.90;;;;;;2494827;23;20667;-69
2022/04/28 01:10:15;;;;;;;20.25;14.27;;;7.20;99.90;;;;;;2494638;23;20452;-69
2022/04/28 01:11:19;;;;;;;19.42;14.15;;;7.20;99.90;;;;;;2494878;23;20033;-68
2022/04/28 01:12:25;;;;;;;22.55;14.77;;;7.20;99.90;;;;;;2496373;23;20022;-68
2022/04/28 01:13:29;;;;;;;22.90;14.75;;;7.10;99.90;;;;;;2494602;23;20007;-68
2022/04/28 01:14:41;;;;;;;26.63;15.77;;;7.10;99.90;;;;;;2497180;23;20044;-69
2022/04/28 01:15:43;;;;;;;26.35;15.73;;;7.10;99.90;;;;;;2494742;23;20053;-69
2022/04/28 01:16:43;;;;;;;26.27;16.30;;;7.10;99.90;;;;;;2495087;23;20011;-69
2022/04/28 01:17:44;;;;;;;28.92;16.88;;;7.10;99.90;;;;;;2494560;23;20030;-68
2022/04/28 01:18:45;;;;;;;28.33;16.80;;;7.10;99.90;;;;;;2483257;23;20148;-69
2022/04/28 01:19:45;;;;;;;34.55;18.38;;;7.00;99.90;;;;;;2483527;23;20031;-69
2022/04/28 01:20:46;;;;;;;34.70;18.92;;;7.00;99.90;;;;;;2495119;23;20099;-68
2022/04/28 01:21:47;;;;;;;34.60;19.70;;;7.00;99.90;;;;;;2495303;23;20071;-68
2022/04/28 01:22:50;;;;;;;32.80;19.00;;;7.00;99.90;;;;;;2483862;23;20019;-69
2022/04/28 01:23:51;;;;;;;36.22;19.05;;;7.00;99.90;;;;;;2483378;23;20147;-69
2022/04/28 01:24:52;;;;;;;30.25;17.13;;;7.00;99.90;;;;;;2471841;23;20021;-69
2022/04/28 01:25:52;;;;;;;32.47;17.95;;;7.00;99.90;;;;;;2483383;23;20075;-70
2022/04/28 01:26:56;;;;;;;44.50;21.45;;;7.00;99.90;;;;;;2506883;23;20428;-69
2022/04/28 01:27:58;;;;;;;49.47;22.95;;;7.00;99.90;;;;;;2506107;23;20531;-69
2022/04/28 01:28:58;;;;;;;46.42;23.27;;;7.00;99.90;;;;;;2483511;23;20012;-68
2022/04/28 01:29:59;;;;;;;47.15;23.27;;;7.00;99.90;;;;;;2483030;23;20327;-69
2022/04/28 01:31:05;;;;;;;42.00;21.05;;;7.00;99.90;;;;;;2495020;23;20011;-68
2022/04/28 01:32:13;;;;;;;34.83;20.05;;;7.00;99.90;;;;;;2506734;23;20010;-69
2022/04/28 01:33:17;;;;;;;36.15;19.75;;;6.90;99.90;;;;;;2506500;23;20042;-69
2022/04/28 01:34:18;;;;;;;39.33;21.15;;;6.90;99.90;;;;;;2494794;23;20008;-70
2022/04/28 01:35:19;;;;;;;40.80;20.35;;;6.90;99.90;;;;;;2494958;23;20055;-69
2022/04/28 01:36:20;;;;;;;38.42;21.08;;;6.90;99.90;;;;;;2494567;23;20004;-69
2022/04/28 01:37:22;;;;;;;38.42;20.85;;;6.90;99.90;;;;;;2483030;23;20520;-69
2022/04/28 01:38:26;;;;;;;33.65;18.67;;;6.90;99.90;;;;;;2495097;23;20023;-69
2022/04/28 01:39:27;;;;;;;28.08;17.05;;;6.80;99.90;;;;;;2506617;23;20041;-69
2022/04/28 01:40:30;;;;;;;28.35;16.95;;;6.80;99.90;;;;;;2506408;23;20059;-69
2022/04/28 01:41:31;;;;;;;29.05;17.25;;;6.80;99.90;;;;;;2494891;23;20412;-69
2022/04/28 01:42:32;;;;;;;25.35;16.38;;;6.80;99.90;;;;;;2495044;23;20003;-69
2022/04/28 01:43:32;;;;;;;25.83;16.33;;;6.80;99.90;;;;;;2506663;23;20502;-69
2022/04/28 01:44:33;;;;;;;28.05;17.52;;;6.80;99.90;;;;;;2506783;23;19999;-69
2022/04/28 01:45:34;;;;;;;27.10;16.23;;;6.80;99.90;;;;;;2483360;23;20016;-68
2022/04/28 01:46:44;;;;;;;26.15;16.50;;;6.70;99.90;;;;;;2499524;23;20095;-69
2022/04/28 01:48:03;;;;;;;24.05;16.05;;;6.70;99.90;;;;;;2506662;23;20022;-69
2022/04/28 01:49:18;;;;;;;23.98;16.17;;;6.70;99.90;;;;;;2503921;23;20409;-70
2022/04/28 01:50:32;;;;;;;27.88;16.90;;;6.70;99.90;;;;;;2494788;23;20007;-68
2022/04/28 01:56:37;;;;;;;28.42;16.50;;;6.70;99.90;;;;;;2487240;23;20046;-70
2022/04/28 01:57:52;;;;;;;24.02;16.15;;;6.70;99.90;;;;;;2506454;23;20042;-70
2022/04/28 01:59:19;;;;;;;24.33;15.70;;;6.70;99.90;;;;;;2506369;23;20018;-70
2022/04/28 02:00:34;;;;;;;24.15;16.15;;;6.60;99.90;;;;;;2503663;23;20006;-70
2022/04/28 02:01:40;;;;;;;22.23;15.98;;;6.60;99.90;;;;;;2495698;23;20467;-70
2022/04/28 02:02:42;;;;;;;23.45;15.35;;;6.60;99.90;;;;;;2507008;23;20017;-69
2022/04/28 02:03:42;;;;;;;22.98;15.50;;;6.60;99.90;;;;;;2494999;23;20112;-69
2022/04/28 02:04:43;;;;;;;22.08;15.25;;;6.60;99.90;;;;;;2495240;23;20394;-69
2022/04/28 02:05:44;;;;;;;23.05;15.50;;;6.60;99.90;;;;;;2506698;23;20011;-69
2022/04/28 02:06:44;;;;;;;23.60;15.80;;;6.60;99.90;;;;;;2507160;23;20081;-69
2022/04/28 02:07:45;;;;;;;22.70;15.70;;;6.60;99.90;;;;;;2494491;23;20098;-69
2022/04/28 02:08:46;;;;;;;23.42;15.32;;;6.60;99.90;;;;;;2494627;23;20829;-69
2022/04/28 02:09:49;;;;;;;22.65;16.27;;;6.60;99.90;;;;;;2494784;23;20007;-69
2022/04/28 02:10:50;;;;;;;23.23;16.13;;;6.60;99.90;;;;;;2483520;23;20510;-69
2022/04/28 02:12:17;;;;;;;20.85;15.55;;;6.60;99.90;;;;;;2495653;23;20046;-71
2022/04/28 02:13:44;;;;;;;21.67;15.50;;;6.50;99.90;;;;;;2463411;23;20076;-70
2022/04/28 02:14:56;;;;;;;20.08;14.73;;;6.50;99.90;;;;;;2507412;23;20003;-70
2022/04/28 02:16:18;;;;;;;22.33;15.18;;;6.50;99.90;;;;;;2503386;23;20078;-70
2022/04/28 02:17:38;;;;;;;18.55;14.68;;;6.50;99.90;;;;;;2506901;23;20007;-70
2022/04/28 02:18:40;;;;;;;20.77;15.85;;;6.50;99.90;;;;;;2495591;23;20460;-70
2022/04/28 02:19:40;;;;;;;19.48;14.75;;;6.40;99.90;;;;;;2495473;23;20007;-70
2022/04/28 02:20:41;;;;;;;18.92;14.52;;;6.40;99.90;;;;;;2507208;23;20042;-70
2022/04/28 02:21:42;;;;;;;18.88;14.40;;;6.40;99.90;;;;;;2496105;23;20046;-70
2022/04/28 02:22:46;;;;;;;17.58;14.15;;;6.40;99.90;;;;;;2507123;23;20054;-70
2022/04/28 02:23:47;;;;;;;18.77;14.23;;;6.40;99.90;;;;;;2507174;23;20034;-70
2022/04/28 02:24:48;;;;;;;17.92;14.13;;;6.30;99.90;;;;;;2507146;23;20424;-70
2022/04/28 02:25:49;;;;;;;17.38;13.93;;;6.30;99.90;;;;;;2506882;23;20026;-70
2022/04/28 02:26:53;;;;;;;18.23;14.32;;;6.30;99.90;;;;;;2506481;23;20015;-70
2022/04/28 02:27:53;;;;;;;20.20;14.27;;;6.40;99.90;;;;;;2483610;23;20043;-70
2022/04/28 02:28:55;;;;;;;20.35;14.10;;;6.30;99.90;;;;;;2495253;23;20173;-70
2022/04/28 02:30:00;;;;;;;18.90;14.45;;;6.30;99.90;;;;;;2495154;23;20007;-70
2022/04/28 02:31:02;;;;;;;18.25;14.30;;;6.30;99.90;;;;;;2483726;23;20036;-70
2022/04/28 02:32:03;;;;;;;19.05;14.07;;;6.30;99.90;;;;;;2495352;23;20063;-70
2022/04/28 02:33:10;;;;;;;18.13;14.20;;;6.30;99.90;;;;;;2507149;23;20011;-70
2022/04/28 02:34:19;;;;;;;18.58;14.52;;;6.30;99.90;;;;;;2495342;23;20142;-70
2022/04/28 02:35:24;;;;;;;19.10;14.68;;;6.30;99.90;;;;;;2496144;23;20007;-70
2022/04/28 02:36:25;;;;;;;19.90;14.65;;;6.20;99.90;;;;;;2495337;23;20058;-70
2022/04/28 02:37:26;;;;;;;18.80;15.05;;;6.20;99.90;;;;;;2482965;23;20012;-70
2022/04/28 02:38:26;;;;;;;18.27;14.38;;;6.20;99.90;;;;;;2495030;23;20011;-70
2022/04/28 02:39:28;;;;;;;20.17;14.43;;;6.20;99.90;;;;;;2495355;23;20007;-70
2022/04/28 02:40:31;;;;;;;18.50;14.27;;;6.20;99.90;;;;;;2495554;23;20023;-70
2022/04/28 02:41:35;;;;;;;19.08;14.63;;;6.20;99.90;;;;;;2507332;23;20062;-70
2022/04/28 02:42:38;;;;;;;19.80;14.57;;;6.20;99.90;;;;;;2507077;23;20015;-70
2022/04/28 02:43:39;;;;;;;17.25;14.27;;;6.20;99.90;;;;;;2507252;23;20007;-70
2022/04/28 02:44:48;;;;;;;18.73;14.35;;;6.20;99.90;;;;;;2495412;23;20015;-70
2022/04/28 02:45:51;;;;;;;18.92;14.82;;;6.20;99.90;;;;;;2495674;23;20011;-70
2022/04/28 02:46:56;;;;;;;18.38;14.68;;;6.20;99.90;;;;;;2494810;23;20041;-70
2022/04/28 02:48:04;;;;;;;17.67;14.65;;;6.10;99.90;;;;;;2496466;23;20015;-70
2022/04/28 02:49:06;;;;;;;18.10;14.38;;;6.10;99.90;;;;;;2507019;23;20095;-70
2022/04/28 02:50:12;;;;;;;18.67;13.85;;;6.10;99.90;;;;;;2495022;23;20520;-70
2022/04/28 02:51:18;;;;;;;18.55;14.02;;;6.10;99.90;;;;;;2484495;23;20020;-70
2022/04/28 02:52:20;;;;;;;18.40;14.23;;;6.10;99.90;;;;;;2483960;23;20011;-70
2022/04/28 02:53:25;;;;;;;19.35;14.73;;;6.10;99.90;;;;;;2484557;23;20015;-71
2022/04/28 02:54:27;;;;;;;19.35;14.27;;;6.10;99.90;;;;;;2484055;23;20075;-71
2022/04/28 02:55:29;;;;;;;19.55;14.55;;;6.10;99.90;;;;;;2495757;23;20531;-71
2022/04/28 02:56:30;;;;;;;18.55;14.20;;;6.00;99.90;;;;;;2507308;23;20007;-70
2022/04/28 02:57:31;;;;;;;18.65;14.60;;;6.00;99.90;;;;;;2495434;23;20434;-70
2022/04/28 02:58:34;;;;;;;21.10;15.65;;;6.10;99.90;;;;;;2495743;23;20035;-70
2022/04/28 02:59:35;;;;;;;18.25;14.63;;;6.00;99.90;;;;;;2507487;23;20015;-70
2022/04/28 03:00:37;;;;;;;19.40;14.95;;;6.00;99.90;;;;;;2495556;23;20063;-70
2022/04/28 03:01:39;;;;;;;20.08;14.35;;;6.00;99.90;;;;;;2483696;23;20016;-70
2022/04/28 03:02:41;;;;;;;18.60;14.68;;;6.00;99.90;;;;;;2484244;23;20011;-70
2022/04/28 03:03:41;;;;;;;18.25;14.55;;;6.00;99.90;;;;;;2495763;23;20078;-70
2022/04/28 03:04:42;;;;;;;18.90;14.35;;;6.00;99.90;;;;;;2495963;23;20019;-70
2022/04/28 03:11:00;;;;;;;21.02;15.07;;;5.90;99.90;;;;;;2495520;23;20007;-70
2022/04/28 03:12:01;;;;;;;19.15;14.85;;;5.90;99.90;;;;;;2483640;23;20437;-70
2022/04/28 03:13:02;;;;;;;19.35;15.32;;;5.80;99.90;;;;;;2495234;23;20086;-70
2022/04/28 03:14:07;;;;;;;19.17;15.05;;;5.80;99.90;;;;;;2495121;23;20023;-69
2022/04/28 03:15:08;;;;;;;20.65;15.30;;;5.90;99.90;;;;;;2495758;23;20003;-70
2022/04/28 03:16:09;;;;;;;20.60;16.02;;;5.80;99.90;;;;;;2495538;23;20469;-70
2022/04/28 03:17:30;;;;;;;;;;;5.80;99.90;;;;;;2499092;23;20079;-70
2022/04/28 03:18:30;;;;;;;20.13;15.18;;;5.80;99.90;;;;;;2507217;23;19910;-70
2022/04/28 03:19:31;;;;;;;21.50;15.55;;;5.80;99.90;;;;;;2507467;23;20499;-70
2022/04/28 03:20:32;;;;;;;21.02;15.32;;;5.80;99.90;;;;;;2495271;23;20008;-70
2022/04/28 03:21:37;;;;;;;19.30;15.07;;;5.80;99.90;;;;;;2496034;23;20014;-70
2022/04/28 03:22:43;;;;;;;20.52;15.43;;;5.80;99.90;;;;;;2507384;23;20022;-70
2022/04/28 03:23:44;;;;;;;20.33;15.60;;;5.80;99.90;;;;;;2508694;23;20041;-70
2022/04/28 03:24:46;;;;;;;20.77;15.07;;;5.80;99.90;;;;;;2495907;23;20015;-70
2022/04/28 03:25:48;;;;;;;19.33;15.30;;;5.80;99.90;;;;;;2495467;23;20494;-70
2022/04/28 03:26:49;;;;;;;19.67;15.25;;;5.70;99.90;;;;;;2495429;23;20011;-70
2022/04/28 03:27:51;;;;;;;19.95;15.25;;;5.70;99.90;;;;;;2495274;23;20019;-70
2022/04/28 03:28:51;;;;;;;20.13;14.65;;;5.80;99.90;;;;;;2507569;23;20003;-70
2022/04/28 03:29:52;;;;;;;20.10;15.25;;;5.80;99.90;;;;;;2507274;23;20464;-70
2022/04/28 03:30:54;;;;;;;23.40;15.55;;;5.80;99.90;;;;;;2507318;23;20007;-70
2022/04/28 03:31:58;;;;;;;21.45;15.43;;;5.80;99.90;;;;;;2495096;23;20007;-70
2022/04/28 03:33:37;;;;;;;20.20;15.38;;;5.70;99.90;;;;;;2492741;23;20466;-70
2022/04/28 03:34:38;;;;;;;20.88;15.55;;;5.70;99.90;;;;;;2507775;23;20003;-70
2022/04/28 03:35:39;;;;;;;19.63;15.55;;;5.70;99.90;;;;;;2507726;23;20026;-70
2022/04/28 03:36:51;;;;;;;25.10;15.98;;;5.70;99.90;;;;;;2506949;23;20063;-71
2022/04/28 03:37:53;;;;;;;66.50;17.88;;;5.70;99.90;;;;;;2494995;23;20012;-70
2022/04/28 03:38:53;;;;;;;64.80;18.52;;;5.80;99.90;;;;;;2494756;23;20015;-70
2022/04/28 03:39:54;;;;;;;56.33;17.92;;;5.90;99.90;;;;;;2494842;23;20723;-70
2022/04/28 03:40:55;;;;;;;37.35;16.80;;;6.00;99.90;;;;;;2495166;23;20011;-70
2022/04/28 03:41:56;;;;;;;29.38;16.45;;;6.00;99.90;;;;;;2495055;23;20038;-70
2022/04/28 03:42:57;;;;;;;27.52;15.50;;;6.10;99.90;;;;;;2483546;23;20004;-71
2022/04/28 03:43:58;;;;;;;31.55;15.88;;;6.10;99.90;;;;;;2495094;23;20043;-70
2022/04/28 03:44:58;;;;;;;35.97;16.02;;;6.20;99.90;;;;;;2495316;23;20475;-70
2022/04/28 03:45:59;;;;;;;27.02;15.38;;;6.20;99.90;;;;;;2507146;23;20035;-70
2022/04/28 03:47:00;;;;;;;24.42;15.38;;;6.20;99.90;;;;;;2507990;23;20002;-70
2022/04/28 03:48:02;;;;;;;22.45;15.77;;;6.20;99.90;;;;;;2484342;23;20008;-71
2022/04/28 03:49:03;;;;;;;25.88;15.20;;;6.30;99.90;;;;;;2484585;23;20377;-70
2022/04/28 03:50:05;;;;;;;27.65;15.25;;;6.30;99.90;;;;;;2496042;23;20007;-70
2022/04/28 03:51:06;;;;;;;22.02;15.15;;;6.40;99.90;;;;;;2496360;23;20016;-70
2022/04/28 03:52:06;;;;;;;20.98;14.93;;;6.40;99.90;;;;;;2508170;23;20014;-71
2022/04/28 03:53:07;;;;;;;17.98;14.15;;;6.40;99.90;;;;;;2507806;23;20014;-70
2022/04/28 03:54:09;;;;;;;19.10;14.20;;;6.50;99.90;;;;;;2507720;23;20010;-71
2022/04/28 03:55:11;;;;;;;18.60;14.18;;;6.50;99.90;;;;;;2507474;23;20007;-70
2022/04/28 03:56:12;;;;;;;22.23;15.10;;;6.60;99.90;;;;;;2484069;23;20007;-70
2022/04/28 03:57:13;;;;;;;19.08;14.43;;;6.60;99.90;;;;;;2483677;23;20011;-71
2022/04/28 03:58:13;;;;;;;22.40;14.65;;;6.60;99.90;;;;;;2495154;23;20098;-70
2022/04/28 03:59:14;;;;;;;19.65;14.40;;;6.70;99.90;;;;;;2495029;23;20050;-70
2022/04/28 04:00:33;;;;;;;21.75;14.52;;;6.70;99.90;;;;;;2503365;23;20030;-70
2022/04/28 04:01:40;;;;;;;19.08;14.10;;;6.80;99.90;;;;;;2506542;23;20464;-70
2022/04/28 04:02:46;;;;;;;24.50;15.40;;;6.80;99.90;;;;;;2495187;23;20365;-70
2022/04/28 04:03:46;;;;;;;21.73;15.05;;;6.90;99.90;;;;;;2495074;23;20436;-71
2022/04/28 04:04:47;;;;;;;19.98;14.27;;;6.90;99.90;;;;;;2507000;23;20074;-71
2022/04/28 04:05:48;;;;;;;21.63;14.50;;;7.00;99.90;;;;;;2495766;23;20014;-70
2022/04/28 04:06:49;;;;;;;22.55;14.98;;;7.00;99.90;;;;;;2506768;23;20011;-70
2022/04/28 04:08:15;;;;;;;28.88;14.65;;;6.90;99.90;;;;;;2501723;23;20022;-70
2022/04/28 04:09:26;;;;;;;24.08;13.90;;;6.90;99.90;;;;;;2495083;23;20003;-70
2022/04/28 04:10:27;;;;;;;28.38;14.20;;;6.90;99.90;;;;;;2506476;23;20031;-70
2022/04/28 04:11:32;;;;;;;27.75;14.00;;;6.90;99.90;;;;;;2505938;23;20095;-70
2022/04/28 04:12:33;;;;;;;21.92;13.82;;;6.80;99.90;;;;;;2494815;23;20082;-70
2022/04/28 04:13:34;;;;;;;19.38;13.40;;;6.80;99.90;;;;;;2495580;23;20551;-70
2022/04/28 04:14:35;;;;;;;18.40;13.93;;;6.80;99.90;;;;;;2483223;23;20084;-70
2022/04/28 04:15:35;;;;;;;17.63;13.65;;;6.80;99.90;;;;;;2483406;23;20008;-70
2022/04/28 04:16:40;;;;;;;16.50;13.40;;;6.80;99.90;;;;;;2495161;23;20033;-70
2022/04/28 04:17:45;;;;;;;17.55;13.82;;;6.80;99.90;;;;;;2506337;23;20011;-70
2022/04/28 04:18:47;;;;;;;17.33;13.88;;;6.80;99.90;;;;;;2506291;23;20011;-70
2022/04/28 04:19:57;;;;;;;17.67;13.60;;;6.80;99.90;;;;;;2494877;23;20012;-70
2022/04/28 04:20:57;;;;;;;17.38;13.75;;;6.80;99.90;;;;;;2506527;23;20027;-70
2022/04/28 04:21:58;;;;;;;18.70;14.25;;;6.80;99.90;;;;;;2506753;23;20011;-70
2022/04/28 04:22:59;;;;;;;18.52;14.35;;;6.80;99.90;;;;;;2506582;23;20010;-70
2022/04/28 04:24:00;;;;;;;18.55;13.48;;;6.80;99.90;;;;;;2506743;23;20483;-70
2022/04/28 04:25:02;;;;;;;20.50;13.88;;;6.90;99.90;;;;;;2506686;23;20007;-70
2022/04/28 04:26:03;;;;;;;17.90;13.98;;;6.90;99.90;;;;;;2494700;23;20015;-70
2022/04/28 04:27:04;;;;;;;17.15;13.70;;;6.90;99.90;;;;;;2494614;23;20429;-70
2022/04/28 04:28:23;;;;;;;16.95;13.48;;;6.90;99.90;;;;;;2495539;23;20011;-70
2022/04/28 04:29:44;;;;;;;17.10;12.95;;;6.90;99.90;;;;;;2496315;23;20011;-70
2022/04/28 04:32:33;;;;;;;17.92;13.55;;;7.00;99.90;;;;;;2494884;23;20614;-70
2022/04/28 04:33:39;;;;;;;18.40;13.82;;;7.00;99.90;;;;;;2506500;23;20007;-70
2022/04/28 04:34:45;;;;;;;19.40;14.15;;;7.00;99.90;;;;;;2506656;23;20015;-70
2022/04/28 04:35:46;;;;;;;17.50;13.75;;;7.00;99.90;;;;;;2494594;23;20007;-70
2022/04/28 04:36:48;;;;;;;20.38;14.70;;;7.10;99.90;;;;;;2494934;23;20511;-70
2022/04/28 04:37:48;;;;;;;18.70;13.63;;;7.10;99.90;;;;;;2506307;23;20030;-70
2022/04/28 04:38:49;;;;;;;16.90;13.13;;;7.10;99.90;;;;;;2506450;23;20408;-70
2022/04/28 04:39:51;;;;;;;17.27;13.38;;;7.10;99.90;;;;;;2494629;23;20663;-70
2022/04/28 04:40:51;;;;;;;17.15;13.25;;;7.10;99.90;;;;;;2494575;23;20007;-70
2022/04/28 04:41:52;;;;;;;18.23;13.90;;;7.10;99.90;;;;;;2506490;23;20014;-70
2022/04/28 04:42:52;;;;;;;17.27;13.95;;;7.10;99.90;;;;;;2494555;23;20011;-70
2022/04/28 04:43:54;;;;;;;17.08;13.13;;;7.10;99.90;;;;;;2483092;23;20008;-70
2022/04/28 04:44:55;;;;;;;19.88;13.80;;;7.20;99.90;;;;;;2494875;23;20019;-70
2022/04/28 04:45:59;;;;;;;19.00;13.43;;;7.20;99.90;;;;;;2494597;23;20340;-70
2022/04/28 04:47:26;;;;;;;19.13;14.00;;;7.30;99.90;;;;;;2499682;23;20021;-70
2022/04/28 04:48:49;;;;;;;21.00;14.13;;;7.50;99.90;;;;;;2506523;23;20050;-70
2022/04/28 04:50:10;;;;;;;18.77;13.63;;;7.60;99.90;;;;;;2494293;23;20027;-70
2022/04/28 04:51:35;;;;;;;19.33;13.85;;;7.70;99.90;;;;;;2499624;23;20014;-70
2022/04/28 04:52:42;;;;;;;19.02;13.73;;;7.70;99.90;;;;;;2506663;23;20089;-70
2022/04/28 04:53:49;;;;;;;17.63;13.20;;;7.60;99.90;;;;;;2494546;23;19999;-70
2022/04/28 04:54:50;;;;;;;17.58;13.65;;;7.60;99.90;;;;;;2494723;23;20007;-70
2022/04/28 04:55:51;;;;;;;19.55;13.85;;;7.60;99.90;;;;;;2494746;23;20017;-70
2022/04/28 04:56:51;;;;;;;20.85;13.98;;;7.60;99.90;;;;;;2494352;23;20003;-70
2022/04/28 04:57:52;;;;;;;20.88;14.60;;;7.70;99.90;;;;;;2494544;23;20168;-70
2022/04/28 04:58:53;;;;;;;18.00;13.93;;;7.80;99.90;;;;;;2494647;23;20042;-70
2022/04/28 04:59:54;;;;;;;19.50;13.82;;;8.00;99.90;;;;;;2494610;23;20690;-70
2022/04/28 05:00:56;;;;;;;21.48;13.90;;;8.30;99.90;;;;;;2494655;23;20059;-70
2022/04/28 05:01:56;;;;;;;18.73;13.23;;;8.60;99.90;;;;;;2495208;23;20514;-71
2022/04/28 05:03:32;;;;;;;18.42;13.10;;;8.90;99.90;;;;;;2470726;24;20020;-70
2022/04/28 05:04:36;;;;;;;18.45;12.70;;;9.30;99.90;;;;;;2477996;23;20027;-70
2022/04/28 05:06:06;;;;;;;18.50;12.23;;;9.50;99.90;;;;;;2497796;23;20109;-70
2022/04/28 05:07:11;;;;;;;18.17;12.70;;;9.90;99.90;;;;;;2506004;23;20018;-71
2022/04/28 05:08:14;;;;;;;18.13;12.18;;;10.10;99.90;;;;;;2506246;23;20425;-70
2022/04/28 05:09:25;;;;;;;18.02;12.65;;;10.40;99.90;;;;;;2494502;23;20130;-70
2022/04/28 05:10:26;;;;;;;17.05;12.63;;;10.60;99.90;;;;;;2494500;23;20369;-70
2022/04/28 05:11:27;;;;;;;16.35;12.23;;;10.80;99.90;;;;;;2494560;23;20360;-70
2022/04/28 05:12:43;;;;;;;14.98;11.73;;;10.90;99.90;;;;;;2494706;23;20368;-70
2022/04/28 05:13:58;;;;;;;17.48;13.68;;;11.20;99.90;;;;;;2497343;23;20015;-70
2022/04/28 05:14:59;;;;;;;19.58;12.70;;;11.40;99.90;;;;;;2494941;23;20007;-70
2022/04/28 05:16:06;;;;;;;15.68;12.02;;;11.60;99.90;;;;;;2484130;23;20004;-70
2022/04/28 05:17:19;;;;;;;15.38;10.93;;;11.80;99.90;;;;;;2496797;23;20007;-70
2022/04/28 05:18:30;;;;;;;14.52;10.85;;;11.90;99.90;;;;;;2506561;23;20042;-70
2022/04/28 05:19:48;;;;;;;15.55;11.18;;;12.00;99.90;;;;;;2494621;23;20034;-70
2022/04/28 05:21:24;;;;;;;13.18;10.65;;;12.10;99.90;;;;;;2478021;23;20019;-70
2022/04/28 05:22:43;;;;;;;14.48;10.43;;;12.30;99.90;;;;;;2470618;24;20012;-71
2022/04/28 05:24:03;;;;;;;14.85;10.70;;;12.50;99.90;;;;;;2494748;23;20019;-71
2022/04/28 05:25:30;;;;;;;13.30;9.85;;;12.60;99.90;;;;;;2506960;23;20018;-70
2022/04/28 05:26:53;;;;;;;13.13;9.98;;;12.80;99.90;;;;;;2483008;23;20395;-70
2022/04/28 05:28:12;;;;;;;15.52;10.60;;;12.90;99.90;;;;;;2494562;23;20015;-69
2022/04/28 05:29:32;;;;;;;12.48;10.40;;;12.90;99.90;;;;;;2498754;23;20437;-70
2022/04/28 05:30:42;;;;;;;14.32;10.65;;;13.10;99.90;;;;;;2506566;23;20066;-68
2022/04/28 05:32:15;;;;;;;14.73;10.65;;;13.20;99.10;;;;;;2475584;23;20036;-71
2022/04/28 05:33:41;;;;;;;13.77;10.77;;;13.30;98.00;;;;;;2506212;23;20025;-70
2022/04/28 05:34:55;;;;;;;16.33;11.20;;;13.40;96.40;;;;;;2494636;23;20007;-70
2022/04/28 05:35:57;;;;;;;16.20;11.32;;;13.50;95.50;;;;;;2482798;23;20441;-69
2022/04/28 05:36:59;;;;;;;15.32;10.82;;;13.50;95.50;;;;;;2494868;23;20070;-70
2022/04/28 05:38:00;;;;;;;19.80;11.95;;;13.60;95.60;;;;;;2494908;23;20071;-70
2022/04/28 05:39:01;;;;;;;16.02;11.30;;;13.60;94.70;;;;;;2494897;23;20019;-69
2022/04/28 05:40:05;;;;;;;14.07;10.90;;;13.60;94.90;;;;;;2494705;23;20031;-70
2022/04/28 05:41:07;;;;;;;17.10;11.45;;;13.70;94.00;;;;;;2495742;23;20044;-69
2022/04/28 05:42:09;;;;;;;14.32;10.80;;;13.70;93.90;;;;;;2507769;23;20011;-69
2022/04/28 05:45:51;;;;;;;16.30;11.70;;;13.60;92.50;;;;;;2499099;23;20034;-70
2022/04/28 05:46:53;;;;;;;14.90;12.00;;;13.60;93.00;;;;;;2495473;23;20058;-70
2022/04/28 05:47:54;;;;;;;15.18;12.05;;;13.50;93.20;;;;;;2484400;23;20099;-70
2022/04/28 05:48:54;;;;;;;15.50;11.75;;;13.60;93.70;;;;;;2495351;23;20008;-70